sensor_id;sensor_type;location;lat;lon;timestamp;P1;durP1;ratioP1;P2;durP2;ratioP2
39214;SDS011;24932;51.746;14.334;2023-08-24T00:00:41;5.0;;;2.67;;
39214;SDS011;24932;51.746;14.334;2023-08-24T00:04:40;5.18;;;3.37;;
39214;SDS011;24932;51.746;14.334;2023-08-24T00:08:40;5.97;;;3.55;;
39214;SDS011;24932;51.746;14.334;2023-08-24T00:12:40;7.35;;;4.22;;
39214;SDS011;24932;51.746;14.334;2023-08-24T00:16:42;4.43;;;3.05;;
39214;SDS011;24932;51.746;14.334;2023-08-24T00:20:40;10.07;;;3.87;;
39214;SDS011;24932;51.746;14.334;2023-08-24T00:24:40;4.45;;;3.28;;
39214;SDS011;24932;51.746;14.334;2023-08-24T00:28:40;6.05;;;3.47;;
39214;SDS011;24932;51.746;14.334;2023-08-24T00:32:40;6.47;;;3.5;;
39214;SDS011;24932;51.746;14.334;2023-08-24T00:36:40;4.75;;;3.7;;
39214;SDS011;24932;51.746;14.334;2023-08-24T00:40:41;12.02;;;4.85;;
39214;SDS011;24932;51.746;14.334;2023-08-24T00:44:40;7.85;;;3.95;;
39214;SDS011;24932;51.746;14.334;2023-08-24T00:48:40;3.83;;;3.47;;
39214;SDS011;24932;51.746;14.334;2023-08-24T00:52:41;5.22;;;3.87;;
39214;SDS011;24932;51.746;14.334;2023-08-24T00:56:40;5.8;;;4.0;;
39214;SDS011;24932;51.746;14.334;2023-08-24T01:00:40;4.87;;;3.75;;
39214;SDS011;24932;51.746;14.334;2023-08-24T01:04:41;4.97;;;3.7;;
39214;SDS011;24932;51.746;14.334;2023-08-24T01:08:40;5.15;;;3.42;;
39214;SDS011;24932;51.746;14.334;2023-08-24T01:12:44;3.8;;;3.4;;
39214;SDS011;24932;51.746;14.334;2023-08-24T01:16:41;4.85;;;3.55;;
39214;SDS011;24932;51.746;14.334;2023-08-24T01:20:40;4.87;;;3.55;;
39214;SDS011;24932;51.746;14.334;2023-08-24T01:24:43;4.55;;;3.2;;
39214;SDS011;24932;51.746;14.334;2023-08-24T01:28:41;5.82;;;4.0;;
39214;SDS011;24932;51.746;14.334;2023-08-24T01:32:40;5.55;;;3.72;;
39214;SDS011;24932;51.746;14.334;2023-08-24T01:36:40;6.28;;;3.45;;
39214;SDS011;24932;51.746;14.334;2023-08-24T01:40:44;7.07;;;3.45;;
39214;SDS011;24932;51.746;14.334;2023-08-24T01:44:40;4.22;;;3.67;;
39214;SDS011;24932;51.746;14.334;2023-08-24T01:48:40;3.75;;;3.35;;
39214;SDS011;24932;51.746;14.334;2023-08-24T01:52:40;3.45;;;3.17;;
39214;SDS011;24932;51.746;14.334;2023-08-24T01:56:40;4.57;;;3.8;;
39214;SDS011;24932;51.746;14.334;2023-08-24T02:00:40;8.43;;;3.97;;
39214;SDS011;24932;51.746;14.334;2023-08-24T02:04:41;5.95;;;3.87;;
39214;SDS011;24932;51.746;14.334;2023-08-24T02:08:40;9.18;;;4.28;;
39214;SDS011;24932;51.746;14.334;2023-08-24T02:12:40;5.8;;;4.28;;
39214;SDS011;24932;51.746;14.334;2023-08-24T02:16:40;5.45;;;4.2;;
39214;SDS011;24932;51.746;14.334;2023-08-24T02:20:40;5.5;;;4.25;;
39214;SDS011;24932;51.746;14.334;2023-08-24T02:24:40;8.6;;;4.82;;
39214;SDS011;24932;51.746;14.334;2023-08-24T02:28:40;5.43;;;4.5;;
39214;SDS011;24932;51.746;14.334;2023-08-24T02:32:40;5.2;;;4.7;;
39214;SDS011;24932;51.746;14.334;2023-08-24T02:36:40;8.57;;;5.35;;
39214;SDS011;24932;51.746;14.334;2023-08-24T02:40:40;6.1;;;5.1;;
39214;SDS011;24932;51.746;14.334;2023-08-24T02:44:40;5.95;;;4.6;;
39214;SDS011;24932;51.746;14.334;2023-08-24T02:48:40;6.53;;;5.12;;
39214;SDS011;24932;51.746;14.334;2023-08-24T02:52:40;6.03;;;5.05;;
39214;SDS011;24932;51.746;14.334;2023-08-24T02:56:40;6.95;;;5.22;;
39214;SDS011;24932;51.746;14.334;2023-08-24T03:00:40;5.53;;;5.03;;
39214;SDS011;24932;51.746;14.334;2023-08-24T03:04:40;6.9;;;5.07;;
39214;SDS011;24932;51.746;14.334;2023-08-24T03:08:40;5.85;;;4.9;;
39214;SDS011;24932;51.746;14.334;2023-08-24T03:12:40;7.15;;;5.05;;
39214;SDS011;24932;51.746;14.334;2023-08-24T03:16:40;5.05;;;4.53;;
39214;SDS011;24932;51.746;14.334;2023-08-24T03:20:41;6.25;;;4.97;;
39214;SDS011;24932;51.746;14.334;2023-08-24T03:24:41;7.65;;;5.15;;
39214;SDS011;24932;51.746;14.334;2023-08-24T03:28:40;7.0;;;5.57;;
39214;SDS011;24932;51.746;14.334;2023-08-24T03:32:40;8.23;;;5.68;;
39214;SDS011;24932;51.746;14.334;2023-08-24T03:36:40;8.93;;;6.25;;
39214;SDS011;24932;51.746;14.334;2023-08-24T03:40:40;7.25;;;6.55;;
39214;SDS011;24932;51.746;14.334;2023-08-24T03:44:40;6.9;;;5.85;;
39214;SDS011;24932;51.746;14.334;2023-08-24T03:48:40;8.27;;;5.85;;
39214;SDS011;24932;51.746;14.334;2023-08-24T03:52:40;8.4;;;6.03;;
39214;SDS011;24932;51.746;14.334;2023-08-24T03:56:39;6.82;;;5.78;;
39214;SDS011;24932;51.746;14.334;2023-08-24T04:00:40;6.12;;;5.6;;
39214;SDS011;24932;51.746;14.334;2023-08-24T04:04:40;8.85;;;6.7;;
39214;SDS011;24932;51.746;14.334;2023-08-24T04:08:40;9.07;;;6.12;;
39214;SDS011;24932;51.746;14.334;2023-08-24T04:12:39;10.45;;;6.9;;
39214;SDS011;24932;51.746;14.334;2023-08-24T04:16:40;7.43;;;6.37;;
39214;SDS011;24932;51.746;14.334;2023-08-24T04:20:41;8.8;;;6.57;;
39214;SDS011;24932;51.746;14.334;2023-08-24T04:24:40;6.97;;;6.05;;
39214;SDS011;24932;51.746;14.334;2023-08-24T04:28:39;6.12;;;5.43;;
39214;SDS011;24932;51.746;14.334;2023-08-24T04:32:40;14.6;;;6.53;;
39214;SDS011;24932;51.746;14.334;2023-08-24T04:36:40;11.32;;;5.7;;
39214;SDS011;24932;51.746;14.334;2023-08-24T04:40:45;12.15;;;5.03;;
39214;SDS011;24932;51.746;14.334;2023-08-24T04:44:41;8.35;;;5.2;;
39214;SDS011;24932;51.746;14.334;2023-08-24T04:48:40;10.23;;;5.22;;
39214;SDS011;24932;51.746;14.334;2023-08-24T04:52:40;10.5;;;4.37;;
39214;SDS011;24932;51.746;14.334;2023-08-24T04:56:40;11.7;;;3.17;;
39214;SDS011;24932;51.746;14.334;2023-08-24T05:00:40;9.18;;;3.12;;
39214;SDS011;24932;51.746;14.334;2023-08-24T05:04:39;6.95;;;3.7;;
39214;SDS011;24932;51.746;14.334;2023-08-24T05:08:40;11.77;;;2.97;;
39214;SDS011;24932;51.746;14.334;2023-08-24T05:12:41;5.57;;;3.28;;
39214;SDS011;24932;51.746;14.334;2023-08-24T05:16:40;15.95;;;3.25;;
39214;SDS011;24932;51.746;14.334;2023-08-24T05:20:41;8.85;;;3.5;;
39214;SDS011;24932;51.746;14.334;2023-08-24T05:24:40;6.18;;;2.55;;
39214;SDS011;24932;51.746;14.334;2023-08-24T05:28:40;8.75;;;3.12;;
39214;SDS011;24932;51.746;14.334;2023-08-24T05:32:41;6.5;;;2.42;;
39214;SDS011;24932;51.746;14.334;2023-08-24T05:36:40;7.6;;;3.33;;
39214;SDS011;24932;51.746;14.334;2023-08-24T05:40:41;5.97;;;2.97;;
39214;SDS011;24932;51.746;14.334;2023-08-24T05:44:40;7.28;;;2.8;;
39214;SDS011;24932;51.746;14.334;2023-08-24T05:48:41;4.45;;;2.7;;
39214;SDS011;24932;51.746;14.334;2023-08-24T05:52:40;9.48;;;3.1;;
39214;SDS011;24932;51.746;14.334;2023-08-24T05:56:40;8.35;;;2.8;;
39214;SDS011;24932;51.746;14.334;2023-08-24T06:00:40;8.4;;;2.85;;
39214;SDS011;24932;51.746;14.334;2023-08-24T06:04:40;8.35;;;3.05;;
39214;SDS011;24932;51.746;14.334;2023-08-24T06:08:40;11.0;;;2.85;;
39214;SDS011;24932;51.746;14.334;2023-08-24T06:12:41;9.15;;;2.53;;
39214;SDS011;24932;51.746;14.334;2023-08-24T06:16:40;6.6;;;2.55;;
39214;SDS011;24932;51.746;14.334;2023-08-24T06:20:40;8.95;;;2.58;;
39214;SDS011;24932;51.746;14.334;2023-08-24T06:24:40;8.5;;;2.65;;
39214;SDS011;24932;51.746;14.334;2023-08-24T06:28:40;3.6;;;2.58;;
39214;SDS011;24932;51.746;14.334;2023-08-24T06:32:41;7.97;;;2.9;;
39214;SDS011;24932;51.746;14.334;2023-08-24T06:36:40;3.83;;;2.15;;
39214;SDS011;24932;51.746;14.334;2023-08-24T06:40:40;6.4;;;2.5;;
39214;SDS011;24932;51.746;14.334;2023-08-24T06:44:40;3.25;;;2.17;;
39214;SDS011;24932;51.746;14.334;2023-08-24T06:48:41;3.4;;;2.15;;
39214;SDS011;24932;51.746;14.334;2023-08-24T06:52:40;8.02;;;2.37;;
39214;SDS011;24932;51.746;14.334;2023-08-24T06:56:40;7.6;;;2.33;;
39214;SDS011;24932;51.746;14.334;2023-08-24T07:00:40;7.45;;;2.75;;
39214;SDS011;24932;51.746;14.334;2023-08-24T07:04:40;8.77;;;2.42;;
39214;SDS011;24932;51.746;14.334;2023-08-24T07:08:41;6.5;;;3.0;;
39214;SDS011;24932;51.746;14.334;2023-08-24T07:12:40;10.93;;;3.03;;
39214;SDS011;24932;51.746;14.334;2023-08-24T07:16:40;10.55;;;3.28;;
39214;SDS011;24932;51.746;14.334;2023-08-24T07:20:40;13.15;;;3.03;;
39214;SDS011;24932;51.746;14.334;2023-08-24T07:24:44;11.4;;;3.1;;
39214;SDS011;24932;51.746;14.334;2023-08-24T07:28:40;11.23;;;3.25;;
39214;SDS011;24932;51.746;14.334;2023-08-24T07:32:40;10.15;;;3.35;;
39214;SDS011;24932;51.746;14.334;2023-08-24T07:36:40;5.6;;;2.92;;
39214;SDS011;24932;51.746;14.334;2023-08-24T07:40:41;11.48;;;2.72;;
39214;SDS011;24932;51.746;14.334;2023-08-24T07:44:40;6.85;;;2.62;;
39214;SDS011;24932;51.746;14.334;2023-08-24T07:48:40;4.72;;;2.5;;
39214;SDS011;24932;51.746;14.334;2023-08-24T07:52:40;6.9;;;2.6;;
39214;SDS011;24932;51.746;14.334;2023-08-24T07:56:40;8.15;;;3.33;;
39214;SDS011;24932;51.746;14.334;2023-08-24T08:00:40;7.22;;;2.33;;
39214;SDS011;24932;51.746;14.334;2023-08-24T08:04:41;14.52;;;3.65;;
39214;SDS011;24932;51.746;14.334;2023-08-24T08:08:39;11.75;;;2.7;;
39214;SDS011;24932;51.746;14.334;2023-08-24T08:12:40;8.68;;;3.15;;
39214;SDS011;24932;51.746;14.334;2023-08-24T08:16:41;7.93;;;2.78;;
39214;SDS011;24932;51.746;14.334;2023-08-24T08:20:40;10.05;;;2.78;;
39214;SDS011;24932;51.746;14.334;2023-08-24T08:24:40;6.37;;;2.3;;
39214;SDS011;24932;51.746;14.334;2023-08-24T08:28:40;9.98;;;2.97;;
39214;SDS011;24932;51.746;14.334;2023-08-24T08:32:41;8.95;;;1.92;;
39214;SDS011;24932;51.746;14.334;2023-08-24T08:36:40;4.22;;;1.9;;
39214;SDS011;24932;51.746;14.334;2023-08-24T08:40:40;9.7;;;2.35;;
39214;SDS011;24932;51.746;14.334;2023-08-24T08:44:41;10.73;;;2.0;;
39214;SDS011;24932;51.746;14.334;2023-08-24T08:48:39;2.78;;;1.7;;
39214;SDS011;24932;51.746;14.334;2023-08-24T08:52:41;9.4;;;1.92;;
39214;SDS011;24932;51.746;14.334;2023-08-24T08:56:41;5.43;;;2.25;;
39214;SDS011;24932;51.746;14.334;2023-08-24T09:00:40;8.73;;;1.75;;
39214;SDS011;24932;51.746;14.334;2023-08-24T09:04:41;4.75;;;1.95;;
39214;SDS011;24932;51.746;14.334;2023-08-24T09:08:41;7.53;;;2.03;;
39214;SDS011;24932;51.746;14.334;2023-08-24T09:12:40;14.98;;;2.62;;
39214;SDS011;24932;51.746;14.334;2023-08-24T09:16:40;14.5;;;2.3;;
39214;SDS011;24932;51.746;14.334;2023-08-24T09:20:40;4.55;;;1.9;;
39214;SDS011;24932;51.746;14.334;2023-08-24T09:24:40;5.78;;;1.55;;
39214;SDS011;24932;51.746;14.334;2023-08-24T09:28:42;8.15;;;2.0;;
39214;SDS011;24932;51.746;14.334;2023-08-24T09:32:41;3.22;;;1.92;;
39214;SDS011;24932;51.746;14.334;2023-08-24T09:36:40;9.8;;;2.25;;
39214;SDS011;24932;51.746;14.334;2023-08-24T09:40:40;4.7;;;1.62;;
39214;SDS011;24932;51.746;14.334;2023-08-24T09:44:43;10.75;;;1.55;;
39214;SDS011;24932;51.746;14.334;2023-08-24T09:48:41;7.43;;;1.75;;
39214;SDS011;24932;51.746;14.334;2023-08-24T09:52:40;5.9;;;1.65;;
39214;SDS011;24932;51.746;14.334;2023-08-24T09:56:40;2.37;;;1.73;;
39214;SDS011;24932;51.746;14.334;2023-08-24T10:00:41;2.72;;;1.7;;
39214;SDS011;24932;51.746;14.334;2023-08-24T10:04:40;4.35;;;1.9;;
39214;SDS011;24932;51.746;14.334;2023-08-24T10:08:42;6.4;;;1.37;;
39214;SDS011;24932;51.746;14.334;2023-08-24T10:12:41;5.78;;;1.37;;
39214;SDS011;24932;51.746;14.334;2023-08-24T10:16:40;9.13;;;1.85;;
39214;SDS011;24932;51.746;14.334;2023-08-24T10:20:40;6.37;;;1.5;;
39214;SDS011;24932;51.746;14.334;2023-08-24T10:24:40;7.93;;;1.7;;
39214;SDS011;24932;51.746;14.334;2023-08-24T10:28:40;5.97;;;1.75;;
39214;SDS011;24932;51.746;14.334;2023-08-24T10:32:39;6.6;;;1.73;;
39214;SDS011;24932;51.746;14.334;2023-08-24T10:36:40;5.22;;;1.55;;
39214;SDS011;24932;51.746;14.334;2023-08-24T10:40:41;2.75;;;1.7;;
39214;SDS011;24932;51.746;14.334;2023-08-24T10:44:43;6.8;;;2.1;;
39214;SDS011;24932;51.746;14.334;2023-08-24T10:48:56;3.55;;;1.5;;
39214;SDS011;24932;51.746;14.334;2023-08-24T10:52:42;2.65;;;1.75;;
39214;SDS011;24932;51.746;14.334;2023-08-24T10:56:40;6.72;;;1.8;;
39214;SDS011;24932;51.746;14.334;2023-08-24T11:00:40;3.6;;;1.7;;
39214;SDS011;24932;51.746;14.334;2023-08-24T11:04:40;7.4;;;1.4;;
39214;SDS011;24932;51.746;14.334;2023-08-24T11:08:44;5.65;;;1.8;;
39214;SDS011;24932;51.746;14.334;2023-08-24T11:13:13;5.28;;;1.83;;
39214;SDS011;24932;51.746;14.334;2023-08-24T11:16:41;4.55;;;1.73;;
39214;SDS011;24932;51.746;14.334;2023-08-24T11:20:42;3.85;;;1.62;;
39214;SDS011;24932;51.746;14.334;2023-08-24T11:24:40;3.03;;;1.8;;
39214;SDS011;24932;51.746;14.334;2023-08-24T11:28:39;5.8;;;1.83;;
39214;SDS011;24932;51.746;14.334;2023-08-24T11:32:40;2.65;;;1.8;;
39214;SDS011;24932;51.746;14.334;2023-08-24T11:36:42;4.0;;;2.1;;
39214;SDS011;24932;51.746;14.334;2023-08-24T11:40:39;4.55;;;1.7;;
39214;SDS011;24932;51.746;14.334;2023-08-24T11:44:48;4.37;;;1.95;;
39214;SDS011;24932;51.746;14.334;2023-08-24T11:48:40;9.13;;;2.2;;
39214;SDS011;24932;51.746;14.334;2023-08-24T11:52:40;4.1;;;1.9;;
39214;SDS011;24932;51.746;14.334;2023-08-24T11:56:41;5.2;;;2.08;;
39214;SDS011;24932;51.746;14.334;2023-08-24T12:00:41;4.93;;;1.95;;
39214;SDS011;24932;51.746;14.334;2023-08-24T12:04:40;11.6;;;2.08;;
39214;SDS011;24932;51.746;14.334;2023-08-24T12:08:41;3.6;;;1.85;;
39214;SDS011;24932;51.746;14.334;2023-08-24T12:12:40;9.07;;;1.35;;
39214;SDS011;24932;51.746;14.334;2023-08-24T12:16:40;2.83;;;1.67;;
39214;SDS011;24932;51.746;14.334;2023-08-24T12:20:41;5.1;;;1.55;;
39214;SDS011;24932;51.746;14.334;2023-08-24T12:24:42;3.97;;;1.77;;
39214;SDS011;24932;51.746;14.334;2023-08-24T12:28:41;3.87;;;1.92;;
39214;SDS011;24932;51.746;14.334;2023-08-24T12:32:42;3.17;;;1.75;;
39214;SDS011;24932;51.746;14.334;2023-08-24T12:36:41;7.85;;;1.75;;
39214;SDS011;24932;51.746;14.334;2023-08-24T12:40:40;4.55;;;1.73;;
39214;SDS011;24932;51.746;14.334;2023-08-24T12:44:40;4.05;;;1.8;;
39214;SDS011;24932;51.746;14.334;2023-08-24T12:48:40;3.45;;;1.65;;
39214;SDS011;24932;51.746;14.334;2023-08-24T12:52:39;2.95;;;1.8;;
39214;SDS011;24932;51.746;14.334;2023-08-24T12:56:40;6.32;;;1.65;;
39214;SDS011;24932;51.746;14.334;2023-08-24T13:00:40;4.68;;;1.6;;
39214;SDS011;24932;51.746;14.334;2023-08-24T13:04:40;4.7;;;1.9;;
39214;SDS011;24932;51.746;14.334;2023-08-24T13:08:39;6.37;;;1.67;;
39214;SDS011;24932;51.746;14.334;2023-08-24T13:12:40;5.43;;;1.7;;
39214;SDS011;24932;51.746;14.334;2023-08-24T13:16:40;3.33;;;1.5;;
39214;SDS011;24932;51.746;14.334;2023-08-24T13:20:40;5.4;;;1.92;;
39214;SDS011;24932;51.746;14.334;2023-08-24T13:24:40;5.22;;;1.9;;
39214;SDS011;24932;51.746;14.334;2023-08-24T13:28:40;4.85;;;2.0;;
39214;SDS011;24932;51.746;14.334;2023-08-24T13:32:39;2.6;;;1.83;;
39214;SDS011;24932;51.746;14.334;2023-08-24T13:36:40;2.8;;;1.6;;
39214;SDS011;24932;51.746;14.334;2023-08-24T13:40:40;4.28;;;1.7;;
39214;SDS011;24932;51.746;14.334;2023-08-24T13:44:40;3.47;;;1.65;;
39214;SDS011;24932;51.746;14.334;2023-08-24T13:48:40;4.12;;;1.98;;
39214;SDS011;24932;51.746;14.334;2023-08-24T13:52:40;7.35;;;2.37;;
39214;SDS011;24932;51.746;14.334;2023-08-24T13:56:40;4.45;;;1.9;;
39214;SDS011;24932;51.746;14.334;2023-08-24T14:00:41;4.32;;;2.2;;
39214;SDS011;24932;51.746;14.334;2023-08-24T14:04:40;6.0;;;1.8;;
39214;SDS011;24932;51.746;14.334;2023-08-24T14:08:40;3.83;;;1.9;;
39214;SDS011;24932;51.746;14.334;2023-08-24T14:12:40;2.42;;;1.77;;
39214;SDS011;24932;51.746;14.334;2023-08-24T14:16:41;2.28;;;1.48;;
39214;SDS011;24932;51.746;14.334;2023-08-24T14:20:41;2.1;;;1.75;;
39214;SDS011;24932;51.746;14.334;2023-08-24T14:24:40;5.47;;;1.6;;
39214;SDS011;24932;51.746;14.334;2023-08-24T14:28:48;9.13;;;2.22;;
39214;SDS011;24932;51.746;14.334;2023-08-24T14:32:40;5.15;;;1.75;;
39214;SDS011;24932;51.746;14.334;2023-08-24T14:36:41;3.8;;;1.65;;
39214;SDS011;24932;51.746;14.334;2023-08-24T14:40:40;5.7;;;2.1;;
39214;SDS011;24932;51.746;14.334;2023-08-24T14:44:40;2.03;;;1.6;;
39214;SDS011;24932;51.746;14.334;2023-08-24T14:48:40;4.53;;;1.73;;
39214;SDS011;24932;51.746;14.334;2023-08-24T14:52:40;6.65;;;2.1;;
39214;SDS011;24932;51.746;14.334;2023-08-24T14:56:40;3.47;;;1.77;;
39214;SDS011;24932;51.746;14.334;2023-08-24T15:00:40;2.12;;;1.5;;
39214;SDS011;24932;51.746;14.334;2023-08-24T15:04:40;5.7;;;1.92;;
39214;SDS011;24932;51.746;14.334;2023-08-24T15:08:40;4.87;;;2.0;;
39214;SDS011;24932;51.746;14.334;2023-08-24T15:12:40;3.58;;;1.65;;
39214;SDS011;24932;51.746;14.334;2023-08-24T15:16:40;4.12;;;1.85;;
39214;SDS011;24932;51.746;14.334;2023-08-24T15:20:40;3.83;;;1.27;;
39214;SDS011;24932;51.746;14.334;2023-08-24T15:24:40;6.95;;;2.25;;
39214;SDS011;24932;51.746;14.334;2023-08-24T15:29:06;6.53;;;1.87;;
39214;SDS011;24932;51.746;14.334;2023-08-24T15:32:39;7.25;;;2.67;;
39214;SDS011;24932;51.746;14.334;2023-08-24T15:36:41;4.6;;;2.15;;
39214;SDS011;24932;51.746;14.334;2023-08-24T15:40:41;3.67;;;1.8;;
39214;SDS011;24932;51.746;14.334;2023-08-24T15:44:40;6.07;;;2.05;;
39214;SDS011;24932;51.746;14.334;2023-08-24T15:48:40;3.95;;;1.98;;
39214;SDS011;24932;51.746;14.334;2023-08-24T15:52:40;6.07;;;1.9;;
39214;SDS011;24932;51.746;14.334;2023-08-24T15:56:40;3.85;;;1.9;;
39214;SDS011;24932;51.746;14.334;2023-08-24T16:00:40;4.53;;;2.37;;
39214;SDS011;24932;51.746;14.334;2023-08-24T16:04:40;2.17;;;1.98;;
39214;SDS011;24932;51.746;14.334;2023-08-24T16:08:40;4.18;;;1.87;;
39214;SDS011;24932;51.746;14.334;2023-08-24T16:12:40;4.97;;;2.67;;
39214;SDS011;24932;51.746;14.334;2023-08-24T16:16:40;5.07;;;2.12;;
39214;SDS011;24932;51.746;14.334;2023-08-24T16:20:41;6.78;;;2.4;;
39214;SDS011;24932;51.746;14.334;2023-08-24T16:24:40;6.07;;;2.1;;
39214;SDS011;24932;51.746;14.334;2023-08-24T16:28:40;7.07;;;2.2;;
39214;SDS011;24932;51.746;14.334;2023-08-24T16:32:39;7.03;;;2.08;;
39214;SDS011;24932;51.746;14.334;2023-08-24T16:36:40;5.12;;;1.92;;
39214;SDS011;24932;51.746;14.334;2023-08-24T16:40:40;7.18;;;2.5;;
39214;SDS011;24932;51.746;14.334;2023-08-24T16:44:40;9.7;;;2.33;;
39214;SDS011;24932;51.746;14.334;2023-08-24T16:48:40;3.83;;;2.58;;
39214;SDS011;24932;51.746;14.334;2023-08-24T16:52:39;7.2;;;2.53;;
39214;SDS011;24932;51.746;14.334;2023-08-24T16:56:41;6.37;;;2.6;;
39214;SDS011;24932;51.746;14.334;2023-08-24T17:00:41;5.53;;;2.4;;
39214;SDS011;24932;51.746;14.334;2023-08-24T17:04:40;6.93;;;2.47;;
39214;SDS011;24932;51.746;14.334;2023-08-24T17:08:40;8.3;;;3.3;;
39214;SDS011;24932;51.746;14.334;2023-08-24T17:12:39;5.62;;;2.45;;
39214;SDS011;24932;51.746;14.334;2023-08-24T17:16:40;5.0;;;2.62;;
39214;SDS011;24932;51.746;14.334;2023-08-24T17:20:39;4.72;;;2.47;;
39214;SDS011;24932;51.746;14.334;2023-08-24T17:24:40;6.2;;;3.12;;
39214;SDS011;24932;51.746;14.334;2023-08-24T17:28:40;6.5;;;2.85;;
39214;SDS011;24932;51.746;14.334;2023-08-24T17:32:40;7.97;;;2.67;;
39214;SDS011;24932;51.746;14.334;2023-08-24T17:36:40;7.5;;;3.2;;
39214;SDS011;24932;51.746;14.334;2023-08-24T17:40:40;6.9;;;3.4;;
39214;SDS011;24932;51.746;14.334;2023-08-24T17:44:41;4.75;;;2.9;;
39214;SDS011;24932;51.746;14.334;2023-08-24T17:48:40;8.77;;;2.87;;
39214;SDS011;24932;51.746;14.334;2023-08-24T17:52:40;8.6;;;3.72;;
39214;SDS011;24932;51.746;14.334;2023-08-24T17:56:41;5.53;;;2.92;;
39214;SDS011;24932;51.746;14.334;2023-08-24T18:00:41;4.37;;;2.9;;
39214;SDS011;24932;51.746;14.334;2023-08-24T18:04:40;4.43;;;2.8;;
39214;SDS011;24932;51.746;14.334;2023-08-24T18:08:51;8.25;;;2.92;;
39214;SDS011;24932;51.746;14.334;2023-08-24T18:12:40;5.2;;;2.62;;
39214;SDS011;24932;51.746;14.334;2023-08-24T18:16:41;7.82;;;3.1;;
39214;SDS011;24932;51.746;14.334;2023-08-24T18:20:40;4.47;;;2.67;;
39214;SDS011;24932;51.746;14.334;2023-08-24T18:24:40;4.68;;;2.53;;
39214;SDS011;24932;51.746;14.334;2023-08-24T18:28:40;6.97;;;3.1;;
39214;SDS011;24932;51.746;14.334;2023-08-24T18:32:39;5.57;;;2.95;;
39214;SDS011;24932;51.746;14.334;2023-08-24T18:36:41;6.28;;;2.7;;
39214;SDS011;24932;51.746;14.334;2023-08-24T18:40:40;4.22;;;2.97;;
39214;SDS011;24932;51.746;14.334;2023-08-24T18:44:40;7.82;;;3.08;;
39214;SDS011;24932;51.746;14.334;2023-08-24T18:48:40;6.22;;;3.05;;
39214;SDS011;24932;51.746;14.334;2023-08-24T18:52:40;6.57;;;3.75;;
39214;SDS011;24932;51.746;14.334;2023-08-24T18:56:40;6.07;;;3.62;;
39214;SDS011;24932;51.746;14.334;2023-08-24T19:00:40;6.47;;;3.08;;
39214;SDS011;24932;51.746;14.334;2023-08-24T19:04:40;5.28;;;3.4;;
39214;SDS011;24932;51.746;14.334;2023-08-24T19:08:40;8.27;;;2.97;;
39214;SDS011;24932;51.746;14.334;2023-08-24T19:12:40;7.2;;;2.97;;
39214;SDS011;24932;51.746;14.334;2023-08-24T19:16:40;10.23;;;3.2;;
39214;SDS011;24932;51.746;14.334;2023-08-24T19:20:40;9.1;;;3.2;;
39214;SDS011;24932;51.746;14.334;2023-08-24T19:24:40;8.7;;;3.55;;
39214;SDS011;24932;51.746;14.334;2023-08-24T19:28:40;9.73;;;3.0;;
39214;SDS011;24932;51.746;14.334;2023-08-24T19:32:41;3.4;;;2.53;;
39214;SDS011;24932;51.746;14.334;2023-08-24T19:36:40;4.95;;;3.28;;
39214;SDS011;24932;51.746;14.334;2023-08-24T19:40:40;6.3;;;3.08;;
39214;SDS011;24932;51.746;14.334;2023-08-24T19:44:40;4.3;;;2.85;;
39214;SDS011;24932;51.746;14.334;2023-08-24T19:48:40;6.8;;;3.37;;
39214;SDS011;24932;51.746;14.334;2023-08-24T19:52:40;12.37;;;2.8;;
39214;SDS011;24932;51.746;14.334;2023-08-24T19:56:40;6.55;;;2.7;;
39214;SDS011;24932;51.746;14.334;2023-08-24T20:00:40;4.12;;;2.9;;
39214;SDS011;24932;51.746;14.334;2023-08-24T20:04:40;10.45;;;3.33;;
39214;SDS011;24932;51.746;14.334;2023-08-24T20:08:40;4.68;;;2.6;;
39214;SDS011;24932;51.746;14.334;2023-08-24T20:12:40;6.9;;;3.0;;
39214;SDS011;24932;51.746;14.334;2023-08-24T20:16:40;4.12;;;2.58;;
39214;SDS011;24932;51.746;14.334;2023-08-24T20:20:41;8.13;;;3.65;;
39214;SDS011;24932;51.746;14.334;2023-08-24T20:24:40;6.68;;;2.55;;
39214;SDS011;24932;51.746;14.334;2023-08-24T20:28:40;8.55;;;3.3;;
39214;SDS011;24932;51.746;14.334;2023-08-24T20:32:40;6.3;;;2.8;;
39214;SDS011;24932;51.746;14.334;2023-08-24T20:36:40;12.77;;;2.95;;
39214;SDS011;24932;51.746;14.334;2023-08-24T20:40:40;5.62;;;3.12;;
39214;SDS011;24932;51.746;14.334;2023-08-24T20:44:41;5.05;;;2.8;;
39214;SDS011;24932;51.746;14.334;2023-08-24T20:48:41;7.0;;;3.1;;
39214;SDS011;24932;51.746;14.334;2023-08-24T20:52:40;3.85;;;2.7;;
39214;SDS011;24932;51.746;14.334;2023-08-24T20:56:40;6.0;;;2.85;;
39214;SDS011;24932;51.746;14.334;2023-08-24T21:00:40;9.13;;;3.03;;
39214;SDS011;24932;51.746;14.334;2023-08-24T21:04:40;5.07;;;3.03;;
39214;SDS011;24932;51.746;14.334;2023-08-24T21:08:41;6.4;;;3.62;;
39214;SDS011;24932;51.746;14.334;2023-08-24T21:12:41;5.03;;;3.25;;
39214;SDS011;24932;51.746;14.334;2023-08-24T21:16:40;6.03;;;2.62;;
39214;SDS011;24932;51.746;14.334;2023-08-24T21:20:40;4.07;;;3.12;;
39214;SDS011;24932;51.746;14.334;2023-08-24T21:24:40;5.85;;;2.8;;
39214;SDS011;24932;51.746;14.334;2023-08-24T21:28:40;7.9;;;3.28;;
39214;SDS011;24932;51.746;14.334;2023-08-24T21:32:40;10.43;;;3.25;;
39214;SDS011;24932;51.746;14.334;2023-08-24T21:36:40;10.88;;;3.03;;
39214;SDS011;24932;51.746;14.334;2023-08-24T21:40:40;7.22;;;3.1;;
39214;SDS011;24932;51.746;14.334;2023-08-24T21:44:40;5.53;;;3.05;;
39214;SDS011;24932;51.746;14.334;2023-08-24T21:48:40;5.62;;;3.4;;
39214;SDS011;24932;51.746;14.334;2023-08-24T21:52:40;4.7;;;3.22;;
39214;SDS011;24932;51.746;14.334;2023-08-24T21:56:40;5.35;;;3.42;;
39214;SDS011;24932;51.746;14.334;2023-08-24T22:00:40;9.1;;;3.3;;
39214;SDS011;24932;51.746;14.334;2023-08-24T22:04:41;5.7;;;3.03;;
39214;SDS011;24932;51.746;14.334;2023-08-24T22:08:40;5.32;;;3.0;;
39214;SDS011;24932;51.746;14.334;2023-08-24T22:12:40;6.8;;;3.3;;
39214;SDS011;24932;51.746;14.334;2023-08-24T22:16:40;3.37;;;2.9;;
39214;SDS011;24932;51.746;14.334;2023-08-24T22:20:41;6.18;;;3.95;;
39214;SDS011;24932;51.746;14.334;2023-08-24T22:24:40;7.12;;;2.95;;
39214;SDS011;24932;51.746;14.334;2023-08-24T22:28:40;11.0;;;3.42;;
39214;SDS011;24932;51.746;14.334;2023-08-24T22:32:40;7.55;;;3.3;;
39214;SDS011;24932;51.746;14.334;2023-08-24T22:36:40;5.32;;;3.0;;
39214;SDS011;24932;51.746;14.334;2023-08-24T22:40:40;7.68;;;3.67;;
39214;SDS011;24932;51.746;14.334;2023-08-24T22:44:40;3.35;;;3.05;;
39214;SDS011;24932;51.746;14.334;2023-08-24T22:48:40;7.03;;;3.4;;
39214;SDS011;24932;51.746;14.334;2023-08-24T22:52:40;12.95;;;3.53;;
39214;SDS011;24932;51.746;14.334;2023-08-24T22:56:40;6.7;;;3.45;;
39214;SDS011;24932;51.746;14.334;2023-08-24T23:00:40;9.73;;;3.65;;
39214;SDS011;24932;51.746;14.334;2023-08-24T23:04:40;4.6;;;3.0;;
39214;SDS011;24932;51.746;14.334;2023-08-24T23:08:41;6.4;;;3.5;;
39214;SDS011;24932;51.746;14.334;2023-08-24T23:12:40;4.2;;;3.05;;
39214;SDS011;24932;51.746;14.334;2023-08-24T23:16:40;2.8;;;2.4;;
39214;SDS011;24932;51.746;14.334;2023-08-24T23:20:41;6.32;;;3.78;;
39214;SDS011;24932;51.746;14.334;2023-08-24T23:24:51;5.78;;;2.9;;
39214;SDS011;24932;51.746;14.334;2023-08-24T23:28:40;5.45;;;3.35;;
39214;SDS011;24932;51.746;14.334;2023-08-24T23:32:40;7.22;;;3.37;;
39214;SDS011;24932;51.746;14.334;2023-08-24T23:36:40;15.15;;;3.9;;
39214;SDS011;24932;51.746;14.334;2023-08-24T23:40:40;3.2;;;2.85;;
39214;SDS011;24932;51.746;14.334;2023-08-24T23:44:40;6.03;;;3.9;;
39214;SDS011;24932;51.746;14.334;2023-08-24T23:48:40;4.55;;;3.25;;
39214;SDS011;24932;51.746;14.334;2023-08-24T23:52:40;11.43;;;4.18;;